createdAt,value
2023-03-12T00:00:55.644Z,63.81
2023-03-12T00:01:55.637Z,60.75
2023-03-12T00:02:56.753Z,62.68
2023-03-12T00:03:55.639Z,62.36
2023-03-12T00:04:55.596Z,65.58
2023-03-12T00:05:55.579Z,59.94
2023-03-12T00:06:55.572Z,62.68
2023-03-12T00:07:55.577Z,64.45
2023-03-12T00:08:56.430Z,59.30
2023-03-12T00:09:55.532Z,61.71
2023-03-12T00:10:55.539Z,61.87
2023-03-12T00:11:55.541Z,62.04
2023-03-12T00:12:55.502Z,61.39
2023-03-12T00:13:55.553Z,62.68
2023-03-12T00:14:55.492Z,64.29
2023-03-12T00:15:55.613Z,60.42
2023-03-12T00:16:55.468Z,59.94
2023-03-12T00:17:55.527Z,58.33
2023-03-12T00:18:55.428Z,58.49
2023-03-12T00:19:55.483Z,56.88
2023-03-12T00:20:55.430Z,59.30
2023-03-12T00:21:55.421Z,61.23
2023-03-12T00:22:55.400Z,57.04
2023-03-12T00:23:55.370Z,56.56
2023-03-12T00:24:56.257Z,59.46
2023-03-12T00:25:55.870Z,58.81
2023-03-12T00:26:55.334Z,59.46
2023-03-12T00:27:55.333Z,58.97
2023-03-12T00:28:55.321Z,63.65
2023-03-12T00:29:55.309Z,59.46
2023-03-12T00:30:57.179Z,57.36
2023-03-12T00:31:55.279Z,54.62
2023-03-12T00:32:55.297Z,57.04
2023-03-12T00:33:55.258Z,64.45
2023-03-12T00:34:55.680Z,61.87
2023-03-12T00:35:55.318Z,57.85
2023-03-12T00:36:55.232Z,61.39
2023-03-12T00:37:55.203Z,61.71
2023-03-12T00:38:55.228Z,62.20
2023-03-12T00:39:55.213Z,63.65
2023-03-12T00:40:55.217Z,57.69
2023-03-12T00:41:55.231Z,60.75
2023-03-12T00:42:55.167Z,59.78
2023-03-12T00:43:55.129Z,59.62
2023-03-12T00:44:55.145Z,63.97
2023-03-12T00:45:55.128Z,67.19
2023-03-12T00:46:55.203Z,59.94
2023-03-12T00:47:56.093Z,60.91
2023-03-12T00:48:55.091Z,56.56
2023-03-12T00:49:55.698Z,52.69
2023-03-12T00:50:55.064Z,60.10
2023-03-12T00:51:55.111Z,58.81
2023-03-12T00:52:55.069Z,56.07
2023-03-12T00:53:55.445Z,55.91
2023-03-12T00:54:55.010Z,57.69
2023-03-12T00:55:55.018Z,55.59
2023-03-12T00:56:54.990Z,52.85
2023-03-12T00:57:55.023Z,57.04
2023-03-12T00:58:54.974Z,59.94
2023-03-12T00:59:54.954Z,61.39
2023-03-12T01:00:55.046Z,58.97
2023-03-12T01:01:54.932Z,61.39
2023-03-12T01:02:54.946Z,55.91
2023-03-12T01:03:54.981Z,59.14
2023-03-12T01:04:54.926Z,57.52
2023-03-12T01:05:54.913Z,58.49
2023-03-12T01:06:54.895Z,60.26
2023-03-12T01:07:55.707Z,59.78
2023-03-12T01:08:55.143Z,60.42
2023-03-12T01:09:54.877Z,62.36
2023-03-12T01:10:54.975Z,56.40
2023-03-12T01:11:54.837Z,56.56
2023-03-12T01:12:54.838Z,61.39
2023-03-12T01:13:54.830Z,59.30
2023-03-12T01:14:54.855Z,60.75
2023-03-12T01:15:54.798Z,63.16
2023-03-12T01:16:54.778Z,63.65
2023-03-12T01:17:54.752Z,61.07
2023-03-12T01:18:54.744Z,57.52
2023-03-12T01:19:54.766Z,59.30
2023-03-12T01:20:55.578Z,61.07
2023-03-12T01:21:54.916Z,59.94
2023-03-12T01:22:54.715Z,59.14
2023-03-12T01:23:54.684Z,61.55
2023-03-12T01:24:54.684Z,61.55
2023-03-12T01:25:54.730Z,58.17
2023-03-12T01:26:54.662Z,61.71
2023-03-12T01:27:54.654Z,63.33
2023-03-12T01:28:54.652Z,62.04
2023-03-12T01:29:55.362Z,62.04
2023-03-12T01:30:54.719Z,60.10
2023-03-12T01:31:54.681Z,58.49
2023-03-12T01:32:54.604Z,60.10
2023-03-12T01:33:54.583Z,60.10
2023-03-12T01:34:54.575Z,64.78
2023-03-12T01:35:54.655Z,58.49
2023-03-12T01:36:54.572Z,60.59
2023-03-12T01:37:54.545Z,56.72
2023-03-12T01:38:55.525Z,60.26
2023-03-12T01:39:54.513Z,56.72
2023-03-12T01:40:54.501Z,60.75
2023-03-12T01:41:54.591Z,58.97
2023-03-12T01:42:54.491Z,60.26
2023-03-12T01:43:54.500Z,53.33
2023-03-12T01:44:54.492Z,56.40
2023-03-12T01:45:54.484Z,57.52
2023-03-12T01:46:54.439Z,57.69
2023-03-12T01:47:54.425Z,60.10
2023-03-12T01:48:54.425Z,53.82
2023-03-12T01:49:54.401Z,58.65
2023-03-12T01:50:54.373Z,54.30
2023-03-12T01:51:54.386Z,56.07
2023-03-12T01:52:54.373Z,59.46
2023-03-12T01:53:54.355Z,56.72
2023-03-12T01:54:54.350Z,52.85
2023-03-12T01:55:54.314Z,54.30
2023-03-12T01:56:54.302Z,56.56
2023-03-12T01:57:54.334Z,59.14
2023-03-12T01:58:54.281Z,60.10
2023-03-12T01:59:54.275Z,56.56
2023-03-12T02:00:54.321Z,58.81
2023-03-12T02:01:54.252Z,54.95
2023-03-12T02:02:54.255Z,58.17
2023-03-12T02:03:54.282Z,56.56
2023-03-12T02:04:54.215Z,62.36
2023-03-12T02:05:54.215Z,54.79
2023-03-12T02:06:54.221Z,59.62
2023-03-12T02:07:54.234Z,62.68
2023-03-12T02:08:54.175Z,58.49
2023-03-12T02:09:54.176Z,58.17
2023-03-12T02:10:54.157Z,61.39
2023-03-12T02:11:54.139Z,58.49
2023-03-12T02:12:54.400Z,57.52
2023-03-12T02:13:54.108Z,55.43
2023-03-12T02:14:54.113Z,54.30
2023-03-12T02:15:54.095Z,54.62
2023-03-12T02:16:54.147Z,54.46
2023-03-12T02:17:54.122Z,58.49
2023-03-12T02:18:54.080Z,56.56
2023-03-12T02:19:54.069Z,57.52
2023-03-12T02:20:54.038Z,60.42
2023-03-12T02:21:54.029Z,55.91
2023-03-12T02:22:54.445Z,56.07
2023-03-12T02:23:54.036Z,55.59
2023-03-12T02:24:54.025Z,54.95
2023-03-12T02:25:54.021Z,58.65
2023-03-12T02:26:53.969Z,57.36
2023-03-12T02:27:53.963Z,53.82
2023-03-12T02:28:53.986Z,58.97
2023-03-12T02:29:53.937Z,58.65
2023-03-12T02:30:53.929Z,59.46
2023-03-12T02:31:53.935Z,59.46
2023-03-12T02:32:53.918Z,57.52
2023-03-12T02:33:54.035Z,59.46
2023-03-12T02:34:53.902Z,54.14
2023-03-12T02:35:53.901Z,55.91
2023-03-12T02:36:53.873Z,57.69
2023-03-12T02:37:53.871Z,58.97
2023-03-12T02:38:53.906Z,53.50
2023-03-12T02:39:53.847Z,59.30
2023-03-12T02:40:53.844Z,54.30
2023-03-12T02:41:54.022Z,56.07
2023-03-12T02:42:55.391Z,57.69
2023-03-12T02:43:53.837Z,58.17
2023-03-12T02:44:53.837Z,61.87
2023-03-12T02:45:53.777Z,61.07
2023-03-12T02:46:53.820Z,62.20
2023-03-12T02:47:54.740Z,60.75
2023-03-12T02:48:53.737Z,59.94
2023-03-12T02:49:53.747Z,60.75
2023-03-12T02:50:53.700Z,61.07
2023-03-12T02:51:53.710Z,58.97
2023-03-12T02:52:53.778Z,59.46
2023-03-12T02:53:53.668Z,57.52
2023-03-12T02:54:53.709Z,61.87
2023-03-12T02:55:53.648Z,58.17
2023-03-12T02:56:53.664Z,57.52
2023-03-12T02:57:54.138Z,58.49
2023-03-12T02:58:53.659Z,62.20
2023-03-12T02:59:54.329Z,62.04
2023-03-12T03:00:54.677Z,58.97
2023-03-12T03:01:53.730Z,55.27
2023-03-12T03:02:53.557Z,54.95
2023-03-12T03:03:53.591Z,61.23
2023-03-12T03:04:53.551Z,60.75
2023-03-12T03:05:53.580Z,57.20
2023-03-12T03:06:53.524Z,57.04
2023-03-12T03:07:53.520Z,56.07
2023-03-12T03:08:53.520Z,60.75
2023-03-12T03:09:54.560Z,56.07
2023-03-12T03:10:53.524Z,57.36
2023-03-12T03:11:53.483Z,62.52
2023-03-12T03:12:53.469Z,59.78
2023-03-12T03:13:53.458Z,58.97
2023-03-12T03:14:53.461Z,57.36
2023-03-12T03:15:53.466Z,57.04
2023-03-12T03:16:53.420Z,62.04
2023-03-12T03:17:53.425Z,58.81
2023-03-12T03:18:53.760Z,58.97
2023-03-12T03:19:53.698Z,59.78
2023-03-12T03:20:53.423Z,56.72
2023-03-12T03:21:53.372Z,61.71
2023-03-12T03:22:54.067Z,61.39
2023-03-12T03:23:53.361Z,60.75
2023-03-12T03:24:53.506Z,55.43
2023-03-12T03:25:53.324Z,61.71
2023-03-12T03:26:53.308Z,55.27
2023-03-12T03:27:53.306Z,66.55
2023-03-12T03:28:53.483Z,56.72
2023-03-12T03:29:53.305Z,59.30
2023-03-12T03:30:53.309Z,63.00
2023-03-12T03:31:53.291Z,61.07
2023-03-12T03:32:53.348Z,59.78
2023-03-12T03:33:53.229Z,60.10
2023-03-12T03:34:53.241Z,64.13
2023-03-12T03:35:53.270Z,60.42
2023-03-12T03:36:53.384Z,55.75
2023-03-12T03:37:53.192Z,62.20
2023-03-12T03:38:53.168Z,62.04
2023-03-12T03:39:54.191Z,60.91
2023-03-12T03:40:53.169Z,58.33
2023-03-12T03:41:53.245Z,61.87
2023-03-12T03:42:53.118Z,59.14
2023-03-12T03:43:53.100Z,57.52
2023-03-12T03:44:53.106Z,58.17
2023-03-12T03:45:53.218Z,57.69
2023-03-12T03:46:53.086Z,58.33
2023-03-12T03:47:54.518Z,56.07
2023-03-12T03:48:53.056Z,57.69
2023-03-12T03:49:53.062Z,58.49
2023-03-12T03:50:53.107Z,55.43
2023-03-12T03:51:53.010Z,61.39
2023-03-12T03:52:53.161Z,60.26
2023-03-12T03:53:53.006Z,61.55
2023-03-12T03:54:52.975Z,61.55
2023-03-12T03:55:53.010Z,58.97
2023-03-12T03:56:53.004Z,59.14
2023-03-12T03:57:52.962Z,59.30
2023-03-12T03:58:52.943Z,57.20
2023-03-12T03:59:52.929Z,57.36
2023-03-12T04:00:52.930Z,59.46
2023-03-12T04:01:52.957Z,62.04
2023-03-12T04:02:52.936Z,58.65
2023-03-12T04:03:53.206Z,59.14
2023-03-12T04:04:52.932Z,58.65
2023-03-12T04:05:52.968Z,56.40
2023-03-12T04:06:53.133Z,58.17
2023-03-12T04:07:52.879Z,60.26
2023-03-12T04:08:52.931Z,61.07
2023-03-12T04:09:52.819Z,57.04
2023-03-12T04:10:53.757Z,64.45
2023-03-12T04:11:52.827Z,56.07
2023-03-12T04:12:52.818Z,58.01
2023-03-12T04:13:52.795Z,60.59
2023-03-12T04:14:53.347Z,56.07
2023-03-12T04:15:52.776Z,59.78
2023-03-12T04:16:52.741Z,59.30
2023-03-12T04:17:52.815Z,59.94
2023-03-12T04:18:52.727Z,62.84
2023-03-12T04:19:52.711Z,60.59
2023-03-12T04:20:53.695Z,60.59
2023-03-12T04:21:53.641Z,53.01
2023-03-12T04:22:52.655Z,59.78
2023-03-12T04:23:53.203Z,59.46
2023-03-12T04:24:52.663Z,57.69
2023-03-12T04:25:52.629Z,55.75
2023-03-12T04:26:52.623Z,58.49
2023-03-12T04:27:52.622Z,57.36
2023-03-12T04:28:52.647Z,60.59
2023-03-12T04:29:52.603Z,59.14
2023-03-12T04:30:52.631Z,63.00
2023-03-12T04:31:52.575Z,61.07
2023-03-12T04:32:52.652Z,63.16
2023-03-12T04:33:52.594Z,62.20
2023-03-12T04:34:52.532Z,58.97
2023-03-12T04:35:52.581Z,58.97
2023-03-12T04:36:52.532Z,64.29
2023-03-12T04:37:52.513Z,59.30
2023-03-12T04:38:52.485Z,58.97
2023-03-12T04:39:52.539Z,61.55
2023-03-12T04:40:52.517Z,63.97
2023-03-12T04:41:52.447Z,58.01
2023-03-12T04:42:52.448Z,58.65
2023-03-12T04:43:52.443Z,59.46
2023-03-12T04:44:52.465Z,60.42
2023-03-12T04:45:52.420Z,57.04
2023-03-12T04:46:52.462Z,59.46
2023-03-12T04:47:52.389Z,59.78
2023-03-12T04:48:52.384Z,60.91
2023-03-12T04:49:52.359Z,62.52
2023-03-12T04:50:52.377Z,61.71
2023-03-12T04:51:52.356Z,63.49
2023-03-12T04:52:52.345Z,62.36
2023-03-12T04:53:52.332Z,62.04
2023-03-12T04:54:52.336Z,61.23
2023-03-12T04:55:52.337Z,60.42
2023-03-12T04:56:52.283Z,61.55
2023-03-12T04:57:52.290Z,63.33
2023-03-12T04:58:52.259Z,61.71
2023-03-12T04:59:52.274Z,58.81
2023-03-12T05:00:52.270Z,61.07
2023-03-12T05:01:52.238Z,61.87
2023-03-12T05:02:52.262Z,61.39
2023-03-12T05:03:52.277Z,63.65
2023-03-12T05:04:52.226Z,59.78
2023-03-12T05:05:52.218Z,60.10
2023-03-12T05:06:52.193Z,60.42
2023-03-12T05:07:52.160Z,61.07
2023-03-12T05:08:52.159Z,57.04
2023-03-12T05:09:53.184Z,60.26
2023-03-12T05:10:52.140Z,63.65
2023-03-12T05:11:52.130Z,60.10
2023-03-12T05:12:52.100Z,60.75
2023-03-12T05:13:52.096Z,60.10
2023-03-12T05:14:52.092Z,59.46
2023-03-12T05:15:52.143Z,60.10
2023-03-12T05:16:52.076Z,60.75
2023-03-12T05:17:52.058Z,59.78
2023-03-12T05:18:52.818Z,61.55
2023-03-12T05:19:52.042Z,64.78
2023-03-12T05:20:52.067Z,64.29
2023-03-12T05:21:52.014Z,61.71
2023-03-12T05:22:52.017Z,61.87
2023-03-12T05:23:51.991Z,63.00
2023-03-12T05:24:51.978Z,63.33
2023-03-12T05:25:51.961Z,62.52
2023-03-12T05:26:51.984Z,61.55
2023-03-12T05:27:51.951Z,64.94
2023-03-12T05:28:51.930Z,64.45
2023-03-12T05:29:51.929Z,60.59
2023-03-12T05:30:51.920Z,61.55
2023-03-12T05:31:51.971Z,64.78
2023-03-12T05:32:51.939Z,63.00
2023-03-12T05:33:53.024Z,58.49
2023-03-12T05:34:51.865Z,62.68
2023-03-12T05:35:51.895Z,65.74
2023-03-12T05:36:51.891Z,64.94
2023-03-12T05:37:51.833Z,63.65
2023-03-12T05:38:51.844Z,63.16
2023-03-12T05:39:51.824Z,65.74
2023-03-12T05:40:51.797Z,65.10
2023-03-12T05:41:51.802Z,61.87
2023-03-12T05:42:51.815Z,64.45
2023-03-12T05:43:51.761Z,63.49
2023-03-12T05:44:51.768Z,63.16
2023-03-12T05:45:51.770Z,61.07
2023-03-12T05:46:51.731Z,64.78
2023-03-12T05:47:51.765Z,58.97
2023-03-12T05:48:51.718Z,63.00
2023-03-12T05:49:51.710Z,63.16
2023-03-12T05:50:51.709Z,65.26
2023-03-12T05:51:51.678Z,62.04
2023-03-12T05:52:51.666Z,63.33
2023-03-12T05:53:51.687Z,63.33
2023-03-12T05:54:51.661Z,61.71
2023-03-12T05:55:51.638Z,62.36
2023-03-12T05:56:51.631Z,64.61
2023-03-12T05:57:51.605Z,63.33
2023-03-12T05:58:51.642Z,62.68
2023-03-12T05:59:51.610Z,66.06
2023-03-12T06:00:51.594Z,67.51
2023-03-12T06:01:51.592Z,62.04
2023-03-12T06:02:51.573Z,63.81
2023-03-12T06:03:51.592Z,64.29
2023-03-12T06:04:51.528Z,66.71
2023-03-12T06:05:51.536Z,61.23
2023-03-12T06:06:51.507Z,66.06
2023-03-12T06:07:51.509Z,63.49
2023-03-12T06:08:51.503Z,64.13
2023-03-12T06:09:51.500Z,65.74
2023-03-12T06:10:51.471Z,66.71
2023-03-12T06:11:51.473Z,65.90
2023-03-12T06:12:51.441Z,65.26
2023-03-12T06:13:51.453Z,60.59
2023-03-12T06:14:51.471Z,65.58
2023-03-12T06:15:51.405Z,65.58
2023-03-12T06:16:51.445Z,63.16
2023-03-12T06:17:51.399Z,61.23
2023-03-12T06:18:51.378Z,62.52
2023-03-12T06:19:51.403Z,62.52
2023-03-12T06:20:51.371Z,62.20
2023-03-12T06:21:51.350Z,61.23
2023-03-12T06:22:51.337Z,63.16
2023-03-12T06:23:51.333Z,63.97
2023-03-12T06:24:51.324Z,66.87
2023-03-12T06:25:51.342Z,60.26
2023-03-12T06:26:51.303Z,61.71
2023-03-12T06:27:51.276Z,63.49
2023-03-12T06:28:51.271Z,62.52
2023-03-12T06:29:51.259Z,61.55
2023-03-12T06:30:51.288Z,64.29
2023-03-12T06:31:51.285Z,63.65
2023-03-12T06:32:51.272Z,66.06
2023-03-12T06:33:51.217Z,62.68
2023-03-12T06:34:51.201Z,61.55
2023-03-12T06:35:51.236Z,63.33
2023-03-12T06:36:51.223Z,69.93
2023-03-12T06:37:51.188Z,68.96
2023-03-12T06:38:51.152Z,65.26
2023-03-12T06:39:51.151Z,66.39
2023-03-12T06:40:51.146Z,64.61
2023-03-12T06:41:51.163Z,63.81
2023-03-12T06:42:51.107Z,66.71
2023-03-12T06:43:51.111Z,66.23
2023-03-12T06:44:51.196Z,64.94
2023-03-12T06:45:51.078Z,65.10
2023-03-12T06:46:51.104Z,65.58
2023-03-12T06:47:51.064Z,63.97
2023-03-12T06:48:51.156Z,70.90
2023-03-12T06:49:51.145Z,68.00
2023-03-12T06:50:51.015Z,64.29
2023-03-12T06:51:51.008Z,63.00
2023-03-12T06:52:51.013Z,65.26
2023-03-12T06:53:50.991Z,64.29
2023-03-12T06:54:50.969Z,63.33
2023-03-12T06:55:50.969Z,64.29
2023-03-12T06:56:50.962Z,64.78
2023-03-12T06:57:50.974Z,65.74
2023-03-12T06:58:50.939Z,64.61
2023-03-12T06:59:50.914Z,65.74
2023-03-12T07:00:50.916Z,65.10
2023-03-12T07:01:50.951Z,64.29
2023-03-12T07:02:50.929Z,65.74
2023-03-12T07:03:50.886Z,63.33
2023-03-12T07:04:50.890Z,64.61
2023-03-12T07:05:50.874Z,63.65
2023-03-12T07:06:50.856Z,64.78
2023-03-12T07:07:50.837Z,65.90
2023-03-12T07:08:51.156Z,63.33
2023-03-12T07:09:50.822Z,65.90
2023-03-12T07:10:50.793Z,66.06
2023-03-12T07:11:50.810Z,64.61
2023-03-12T07:12:50.797Z,63.65
2023-03-12T07:13:50.800Z,65.10
2023-03-12T07:14:50.752Z,65.90
2023-03-12T07:15:50.782Z,65.26
2023-03-12T07:16:50.731Z,64.94
2023-03-12T07:17:50.988Z,67.51
2023-03-12T07:18:50.748Z,66.23
2023-03-12T07:19:50.692Z,65.58
2023-03-12T07:20:50.686Z,62.52
2023-03-12T07:21:50.681Z,63.49
2023-03-12T07:22:50.652Z,66.39
2023-03-12T07:23:50.641Z,65.42
2023-03-12T07:24:50.671Z,75.89
2023-03-12T07:25:50.633Z,64.78
2023-03-12T07:26:50.604Z,65.26
2023-03-12T07:27:50.609Z,65.10
2023-03-12T07:28:50.578Z,64.29
2023-03-12T07:29:50.610Z,63.00
2023-03-12T07:30:50.605Z,63.00
2023-03-12T07:31:50.551Z,63.65
2023-03-12T07:32:50.602Z,65.90
2023-03-12T07:33:50.618Z,65.26
2023-03-12T07:34:50.529Z,66.55
2023-03-12T07:35:51.913Z,62.20
2023-03-12T07:36:50.722Z,66.55
2023-03-12T07:37:50.531Z,68.16
2023-03-12T07:38:50.479Z,63.65
2023-03-12T07:39:50.504Z,64.78
2023-03-12T07:40:50.505Z,67.68
2023-03-12T07:41:50.493Z,66.71
2023-03-12T07:42:50.520Z,64.45
2023-03-12T07:43:50.454Z,65.90
2023-03-12T07:44:50.643Z,64.13
2023-03-12T07:45:50.431Z,65.74
2023-03-12T07:46:50.465Z,64.94
2023-03-12T07:47:50.491Z,69.77
2023-03-12T07:48:50.835Z,67.03
2023-03-12T07:49:50.400Z,67.19
2023-03-12T07:50:50.870Z,69.61
2023-03-12T07:51:50.400Z,66.87
2023-03-12T07:52:50.310Z,62.04
2023-03-12T07:53:50.489Z,69.29
2023-03-12T07:54:50.350Z,64.29
2023-03-12T07:55:50.459Z,67.19
2023-03-12T07:56:50.788Z,66.39
2023-03-12T07:57:50.360Z,70.58
2023-03-12T07:58:50.373Z,66.39
